sensor_id;sensor_type;location;lat;lon;timestamp;pressure;altitude;pressure_sealevel;temperature;humidity
6425;BME280;12193;42.642;23.384;2023-09-19T00:00:44;94821.44;;;16.11;100.00
6425;BME280;12193;42.642;23.384;2023-09-19T00:03:14;94832.84;;;16.16;100.00
6425;BME280;12193;42.642;23.384;2023-09-19T00:05:43;94832.63;;;16.06;100.00
6425;BME280;12193;42.642;23.384;2023-09-19T03:08:51;94756.47;;;14.55;100.00
6425;BME280;12193;42.642;23.384;2023-09-19T03:11:22;94766.63;;;14.45;100.00
6425;BME280;12193;42.642;23.384;2023-09-19T03:13:52;94759.66;;;14.39;100.00
6425;BME280;12193;42.642;23.384;2023-09-19T03:16:21;94754.50;;;14.50;100.00
6425;BME280;12193;42.642;23.384;2023-09-19T03:18:51;94754.66;;;14.55;100.00
6425;BME280;12193;42.642;23.384;2023-09-19T03:21:20;94758.19;;;14.60;100.00
6425;BME280;12193;42.642;23.384;2023-09-19T03:23:52;94761.19;;;14.64;100.00
6425;BME280;12193;42.642;23.384;2023-09-19T03:26:22;94767.94;;;14.71;100.00
6425;BME280;12193;42.642;23.384;2023-09-19T03:28:53;94763.88;;;14.75;100.00
6425;BME280;12193;42.642;23.384;2023-09-19T03:31:22;94761.41;;;14.62;100.00
6425;BME280;12193;42.642;23.384;2023-09-19T03:33:52;94757.25;;;14.55;100.00
6425;BME280;12193;42.642;23.384;2023-09-19T03:36:21;94760.19;;;14.47;100.00
6425;BME280;12193;42.642;23.384;2023-09-19T03:38:53;94756.25;;;14.56;100.00
6425;BME280;12193;42.642;23.384;2023-09-19T03:41:22;94755.75;;;14.48;100.00
6425;BME280;12193;42.642;23.384;2023-09-19T03:43:52;94756.25;;;14.56;100.00
6425;BME280;12193;42.642;23.384;2023-09-19T03:46:21;94758.34;;;14.48;100.00
6425;BME280;12193;42.642;23.384;2023-09-19T03:48:51;94765.09;;;14.73;100.00
6425;BME280;12193;42.642;23.384;2023-09-19T03:51:20;94763.31;;;14.56;100.00
6425;BME280;12193;42.642;23.384;2023-09-19T03:53:49;94771.34;;;14.54;100.00
6425;BME280;12193;42.642;23.384;2023-09-19T03:56:21;94770.69;;;14.58;100.00
6425;BME280;12193;42.642;23.384;2023-09-19T03:58:51;94775.50;;;14.44;100.00
6425;BME280;12193;42.642;23.384;2023-09-19T04:01:20;94782.41;;;14.56;100.00
6425;BME280;12193;42.642;23.384;2023-09-19T04:03:50;94776.81;;;14.53;100.00
6425;BME280;12193;42.642;23.384;2023-09-19T04:06:19;94775.94;;;14.41;100.00
6425;BME280;12193;42.642;23.384;2023-09-19T04:08:49;94778.44;;;14.29;100.00
6425;BME280;12193;42.642;23.384;2023-09-19T04:11:21;94773.22;;;14.29;100.00
6425;BME280;12193;42.642;23.384;2023-09-19T04:13:50;94782.41;;;14.38;100.00
6425;BME280;12193;42.642;23.384;2023-09-19T04:16:19;94793.16;;;14.48;100.00
6425;BME280;12193;42.642;23.384;2023-09-19T04:18:49;94793.88;;;14.73;100.00
6425;BME280;12193;42.642;23.384;2023-09-19T04:21:18;94790.59;;;14.59;100.00
6425;BME280;12193;42.642;23.384;2023-09-19T04:23:48;94803.34;;;14.56;100.00
6425;BME280;12193;42.642;23.384;2023-09-19T04:26:17;94801.47;;;14.63;100.00
6425;BME280;12193;42.642;23.384;2023-09-19T04:28:50;94794.28;;;14.76;100.00
6425;BME280;12193;42.642;23.384;2023-09-19T04:31:19;94798.72;;;15.05;100.00
6425;BME280;12193;42.642;23.384;2023-09-19T04:33:49;94791.41;;;14.96;100.00
6425;BME280;12193;42.642;23.384;2023-09-19T04:36:18;94789.28;;;15.04;100.00
6425;BME280;12193;42.642;23.384;2023-09-19T04:38:49;94786.50;;;15.35;100.00
6425;BME280;12193;42.642;23.384;2023-09-19T04:41:19;94788.88;;;15.37;100.00
6425;BME280;12193;42.642;23.384;2023-09-19T04:43:52;94794.25;;;15.42;100.00
6425;BME280;12193;42.642;23.384;2023-09-19T04:46:21;94794.66;;;15.57;100.00
6425;BME280;12193;42.642;23.384;2023-09-19T04:48:51;94784.50;;;15.60;100.00
6425;BME280;12193;42.642;23.384;2023-09-19T04:51:20;94790.66;;;15.54;100.00
6425;BME280;12193;42.642;23.384;2023-09-19T04:53:50;94783.25;;;15.51;100.00
6425;BME280;12193;42.642;23.384;2023-09-19T04:56:19;94786.06;;;15.50;100.00
6425;BME280;12193;42.642;23.384;2023-09-19T04:58:52;94783.59;;;15.55;100.00
6425;BME280;12193;42.642;23.384;2023-09-19T05:01:21;94778.53;;;15.42;100.00
6425;BME280;12193;42.642;23.384;2023-09-19T05:03:51;94777.63;;;15.36;100.00
6425;BME280;12193;42.642;23.384;2023-09-19T05:06:20;94778.41;;;15.37;100.00
6425;BME280;12193;42.642;23.384;2023-09-19T05:08:50;94775.00;;;15.36;100.00
6425;BME280;12193;42.642;23.384;2023-09-19T05:11:20;94767.94;;;15.37;100.00
6425;BME280;12193;42.642;23.384;2023-09-19T05:13:53;94771.72;;;15.41;100.00
6425;BME280;12193;42.642;23.384;2023-09-19T05:16:22;94771.03;;;15.45;100.00
6425;BME280;12193;42.642;23.384;2023-09-19T05:18:52;94768.22;;;15.69;100.00
6425;BME280;12193;42.642;23.384;2023-09-19T05:21:21;94772.03;;;15.96;100.00
6425;BME280;12193;42.642;23.384;2023-09-19T05:23:51;94765.09;;;16.02;100.00
6425;BME280;12193;42.642;23.384;2023-09-19T05:26:21;94766.84;;;16.42;100.00
6425;BME280;12193;42.642;23.384;2023-09-19T05:28:54;94778.56;;;16.63;100.00
6425;BME280;12193;42.642;23.384;2023-09-19T05:31:23;94763.19;;;16.55;100.00
6425;BME280;12193;42.642;23.384;2023-09-19T05:33:52;94762.78;;;16.74;100.00
6425;BME280;12193;42.642;23.384;2023-09-19T05:36:21;94756.22;;;16.60;100.00
6425;BME280;12193;42.642;23.384;2023-09-19T05:38:51;94764.84;;;17.23;100.00
6425;BME280;12193;42.642;23.384;2023-09-19T05:41:20;94768.28;;;17.51;100.00
6425;BME280;12193;42.642;23.384;2023-09-19T05:43:49;94770.69;;;17.53;100.00
6425;BME280;12193;42.642;23.384;2023-09-19T05:46:22;94763.94;;;17.73;100.00
6425;BME280;12193;42.642;23.384;2023-09-19T05:48:55;94764.66;;;17.69;100.00
6425;BME280;12193;42.642;23.384;2023-09-19T05:51:25;94759.72;;;18.54;100.00
6425;BME280;12193;42.642;23.384;2023-09-19T05:53:55;94759.03;;;19.06;100.00
6425;BME280;12193;42.642;23.384;2023-09-19T05:56:24;94755.66;;;18.14;100.00
6425;BME280;12193;42.642;23.384;2023-09-19T05:58:54;94750.47;;;18.02;100.00
6425;BME280;12193;42.642;23.384;2023-09-19T06:01:26;94747.44;;;18.10;100.00
6425;BME280;12193;42.642;23.384;2023-09-19T06:03:57;94753.78;;;18.64;100.00
6425;BME280;12193;42.642;23.384;2023-09-19T06:06:26;94745.38;;;19.09;100.00
6425;BME280;12193;42.642;23.384;2023-09-19T06:08:56;94750.47;;;19.37;100.00
6425;BME280;12193;42.642;23.384;2023-09-19T06:11:25;94753.50;;;18.82;100.00
6425;BME280;12193;42.642;23.384;2023-09-19T06:13:58;94745.38;;;18.29;100.00
6425;BME280;12193;42.642;23.384;2023-09-19T06:16:31;94746.00;;;18.74;100.00
6425;BME280;12193;42.642;23.384;2023-09-19T06:19:00;94745.31;;;18.83;100.00
6425;BME280;12193;42.642;23.384;2023-09-19T06:21:30;94745.19;;;18.52;100.00
6425;BME280;12193;42.642;23.384;2023-09-19T06:24:00;94746.66;;;18.64;100.00
6425;BME280;12193;42.642;23.384;2023-09-19T06:26:30;94745.50;;;18.98;100.00
6425;BME280;12193;42.642;23.384;2023-09-19T06:28:59;94750.56;;;19.47;100.00
6425;BME280;12193;42.642;23.384;2023-09-19T06:31:36;94739.44;;;20.29;96.44
6425;BME280;12193;42.642;23.384;2023-09-19T06:34:07;94744.44;;;19.94;96.15
6425;BME280;12193;42.642;23.384;2023-09-19T06:36:37;94741.38;;;19.50;99.12
6425;BME280;12193;42.642;23.384;2023-09-19T06:39:07;94736.16;;;20.12;97.76
6425;BME280;12193;42.642;23.384;2023-09-19T06:41:37;94736.03;;;19.97;97.17
6425;BME280;12193;42.642;23.384;2023-09-19T06:44:07;94733.25;;;19.56;98.65
6425;BME280;12193;42.642;23.384;2023-09-19T06:46:39;94744.31;;;19.05;100.00
6425;BME280;12193;42.642;23.384;2023-09-19T06:49:12;94743.41;;;19.00;100.00
6425;BME280;12193;42.642;23.384;2023-09-19T06:51:42;94747.72;;;19.06;100.00
6425;BME280;12193;42.642;23.384;2023-09-19T06:54:11;94754.88;;;19.10;100.00
6425;BME280;12193;42.642;23.384;2023-09-19T06:56:40;94754.53;;;18.81;100.00
6425;BME280;12193;42.642;23.384;2023-09-19T06:59:10;94748.22;;;18.11;100.00
6425;BME280;12193;42.642;23.384;2023-09-19T07:01:43;94744.53;;;18.45;100.00
6425;BME280;12193;42.642;23.384;2023-09-19T07:04:13;94757.56;;;19.37;100.00
6425;BME280;12193;42.642;23.384;2023-09-19T07:06:42;94753.03;;;19.54;100.00
6425;BME280;12193;42.642;23.384;2023-09-19T07:09:12;94749.88;;;19.88;100.00
6425;BME280;12193;42.642;23.384;2023-09-19T07:11:41;94756.94;;;20.04;97.74
6425;BME280;12193;42.642;23.384;2023-09-19T07:14:11;94757.22;;;20.44;94.42
6425;BME280;12193;42.642;23.384;2023-09-19T07:16:43;94753.53;;;20.08;96.45
6425;BME280;12193;42.642;23.384;2023-09-19T07:19:13;94747.34;;;20.29;94.83
6425;BME280;12193;42.642;23.384;2023-09-19T07:21:43;94753.53;;;20.50;93.37
6425;BME280;12193;42.642;23.384;2023-09-19T07:24:13;94749.00;;;20.35;93.98
6425;BME280;12193;42.642;23.384;2023-09-19T07:26:44;94747.66;;;20.38;92.78
6425;BME280;12193;42.642;23.384;2023-09-19T07:29:14;94752.16;;;20.37;93.27
6425;BME280;12193;42.642;23.384;2023-09-19T07:31:46;94753.66;;;20.70;91.72
6425;BME280;12193;42.642;23.384;2023-09-19T07:34:16;94745.44;;;20.61;93.10
6425;BME280;12193;42.642;23.384;2023-09-19T07:36:45;94760.84;;;20.74;91.54
6425;BME280;12193;42.642;23.384;2023-09-19T07:39:15;94749.41;;;20.22;93.06
6425;BME280;12193;42.642;23.384;2023-09-19T07:41:44;94747.94;;;20.41;91.95
6425;BME280;12193;42.642;23.384;2023-09-19T07:44:14;94750.81;;;20.35;94.52
6425;BME280;12193;42.642;23.384;2023-09-19T07:46:47;94748.06;;;20.20;95.26
6425;BME280;12193;42.642;23.384;2023-09-19T07:49:17;94749.72;;;20.31;96.00
6425;BME280;12193;42.642;23.384;2023-09-19T07:51:46;94757.81;;;20.19;93.20
6425;BME280;12193;42.642;23.384;2023-09-19T07:54:15;94756.13;;;20.40;92.81
6425;BME280;12193;42.642;23.384;2023-09-19T07:56:45;94750.75;;;19.93;94.68
6425;BME280;12193;42.642;23.384;2023-09-19T07:59:14;94762.66;;;19.70;96.40
6425;BME280;12193;42.642;23.384;2023-09-19T08:01:46;94758.25;;;20.06;93.67
6425;BME280;12193;42.642;23.384;2023-09-19T08:04:16;94757.63;;;20.67;90.92
6425;BME280;12193;42.642;23.384;2023-09-19T08:06:45;94758.22;;;21.40;86.53
6425;BME280;12193;42.642;23.384;2023-09-19T08:09:14;94759.31;;;21.44;85.27
6425;BME280;12193;42.642;23.384;2023-09-19T08:11:47;94759.59;;;21.53;85.21
6425;BME280;12193;42.642;23.384;2023-09-19T08:14:16;94757.03;;;21.78;82.74
6425;BME280;12193;42.642;23.384;2023-09-19T08:16:48;94753.34;;;22.08;81.93
6425;BME280;12193;42.642;23.384;2023-09-19T08:19:18;94755.97;;;21.84;81.45
6425;BME280;12193;42.642;23.384;2023-09-19T08:21:49;94736.72;;;21.12;85.70
6425;BME280;12193;42.642;23.384;2023-09-19T08:24:19;94742.72;;;21.69;82.77
6425;BME280;12193;42.642;23.384;2023-09-19T08:26:48;94732.56;;;21.41;83.19
6425;BME280;12193;42.642;23.384;2023-09-19T08:29:17;94731.09;;;21.75;82.19
6425;BME280;12193;42.642;23.384;2023-09-19T08:31:49;94730.47;;;21.48;82.72
6425;BME280;12193;42.642;23.384;2023-09-19T08:34:19;94721.34;;;21.04;84.55
6425;BME280;12193;42.642;23.384;2023-09-19T08:36:50;94725.69;;;21.45;83.28
6425;BME280;12193;42.642;23.384;2023-09-19T08:39:22;94728.44;;;22.19;79.28
6425;BME280;12193;42.642;23.384;2023-09-19T08:41:57;94735.78;;;22.77;77.15
6425;BME280;12193;42.642;23.384;2023-09-19T08:44:26;94739.56;;;23.34;74.50
6425;BME280;12193;42.642;23.384;2023-09-19T08:47:04;94732.97;;;22.09;78.39
6425;BME280;12193;42.642;23.384;2023-09-19T08:49:41;94742.06;;;23.16;73.97
6425;BME280;12193;42.642;23.384;2023-09-19T08:52:19;94736.25;;;22.94;73.55
6425;BME280;12193;42.642;23.384;2023-09-19T08:54:52;94731.22;;;23.56;70.41
6425;BME280;12193;42.642;23.384;2023-09-19T08:57:23;94725.19;;;22.72;74.58
6425;BME280;12193;42.642;23.384;2023-09-19T08:59:52;94727.06;;;22.72;73.94
6425;BME280;12193;42.642;23.384;2023-09-19T09:02:25;94720.22;;;23.29;74.11
6425;BME280;12193;42.642;23.384;2023-09-19T09:04:56;94719.91;;;22.72;74.72
6425;BME280;12193;42.642;23.384;2023-09-19T09:07:27;94718.75;;;22.93;74.70
6425;BME280;12193;42.642;23.384;2023-09-19T09:09:56;94711.22;;;21.77;79.49
6425;BME280;12193;42.642;23.384;2023-09-19T09:12:26;94713.09;;;21.97;78.61
6425;BME280;12193;42.642;23.384;2023-09-19T09:14:56;94708.31;;;22.03;78.92
6425;BME280;12193;42.642;23.384;2023-09-19T09:17:28;94707.25;;;22.39;78.34
6425;BME280;12193;42.642;23.384;2023-09-19T09:19:57;94704.06;;;22.42;78.32
6425;BME280;12193;42.642;23.384;2023-09-19T09:22:26;94697.56;;;22.88;76.32
6425;BME280;12193;42.642;23.384;2023-09-19T09:24:58;94712.28;;;23.24;75.11
6425;BME280;12193;42.642;23.384;2023-09-19T09:27:30;94701.06;;;23.85;71.27
6425;BME280;12193;42.642;23.384;2023-09-19T09:30:00;94698.63;;;22.92;73.96
6425;BME280;12193;42.642;23.384;2023-09-19T09:32:32;94699.72;;;22.81;74.86
6425;BME280;12193;42.642;23.384;2023-09-19T09:35:07;94697.28;;;23.48;74.23
6425;BME280;12193;42.642;23.384;2023-09-19T09:37:43;94687.81;;;23.75;71.21
6425;BME280;12193;42.642;23.384;2023-09-19T09:40:14;94692.63;;;23.73;72.14
6425;BME280;12193;42.642;23.384;2023-09-19T09:43:02;94682.88;;;24.59;69.58
6425;BME280;12193;42.642;23.384;2023-09-19T09:45:32;94675.72;;;24.78;67.12
6425;BME280;12193;42.642;23.384;2023-09-19T09:48:24;94672.16;;;24.87;66.52
6425;BME280;12193;42.642;23.384;2023-09-19T09:50:57;94667.22;;;24.01;67.70
6425;BME280;12193;42.642;23.384;2023-09-19T09:53:30;94679.28;;;22.87;74.04
6425;BME280;12193;42.642;23.384;2023-09-19T09:56:01;94664.59;;;23.96;68.35
6425;BME280;12193;42.642;23.384;2023-09-19T09:58:32;94657.91;;;25.25;64.49
6425;BME280;12193;42.642;23.384;2023-09-19T10:01:03;94659.25;;;24.99;60.78
6425;BME280;12193;42.642;23.384;2023-09-19T10:03:45;94652.22;;;25.32;58.09
6425;BME280;12193;42.642;23.384;2023-09-19T10:06:17;94648.41;;;24.96;59.13
6425;BME280;12193;42.642;23.384;2023-09-19T10:08:58;94655.53;;;25.79;56.73
6425;BME280;12193;42.642;23.384;2023-09-19T10:11:42;94656.38;;;25.56;57.84
6425;BME280;12193;42.642;23.384;2023-09-19T10:14:20;94656.94;;;25.90;53.92
6425;BME280;12193;42.642;23.384;2023-09-19T10:16:59;94654.47;;;24.78;58.07
6425;BME280;12193;42.642;23.384;2023-09-19T10:19:36;94653.38;;;24.04;62.16
6425;BME280;12193;42.642;23.384;2023-09-19T10:22:07;94660.88;;;23.15;66.83
6425;BME280;12193;42.642;23.384;2023-09-19T10:24:38;94654.88;;;22.90;68.11
6425;BME280;12193;42.642;23.384;2023-09-19T10:27:08;94643.66;;;23.13;68.24
6425;BME280;12193;42.642;23.384;2023-09-19T10:29:39;94631.13;;;23.56;64.70
6425;BME280;12193;42.642;23.384;2023-09-19T10:32:09;94640.19;;;23.89;63.54
6425;BME280;12193;42.642;23.384;2023-09-19T10:34:47;94626.81;;;23.70;65.30
6425;BME280;12193;42.642;23.384;2023-09-19T10:37:21;94640.72;;;23.91;63.51
6425;BME280;12193;42.642;23.384;2023-09-19T10:39:53;94631.63;;;23.63;64.38
6425;BME280;12193;42.642;23.384;2023-09-19T10:42:27;94626.66;;;23.90;62.14
6425;BME280;12193;42.642;23.384;2023-09-19T10:44:58;94625.06;;;24.18;61.27
6425;BME280;12193;42.642;23.384;2023-09-19T10:47:30;94628.47;;;24.23;61.04
6425;BME280;12193;42.642;23.384;2023-09-19T10:50:02;94631.75;;;24.15;61.03
6425;BME280;12193;42.642;23.384;2023-09-19T10:52:33;94635.06;;;24.77;58.74
6425;BME280;12193;42.642;23.384;2023-09-19T10:55:08;94624.56;;;24.86;57.70
6425;BME280;12193;42.642;23.384;2023-09-19T10:57:37;94623.88;;;24.28;61.05
6425;BME280;12193;42.642;23.384;2023-09-19T11:00:08;94622.88;;;24.24;60.34
6425;BME280;12193;42.642;23.384;2023-09-19T11:03:17;94621.03;;;23.97;62.44
6425;BME280;12193;42.642;23.384;2023-09-19T11:06:09;94612.97;;;24.58;60.42
6425;BME280;12193;42.642;23.384;2023-09-19T11:08:53;94613.78;;;24.77;59.75
6425;BME280;12193;42.642;23.384;2023-09-19T11:11:44;94609.44;;;24.63;59.36
6425;BME280;12193;42.642;23.384;2023-09-19T11:14:29;94606.47;;;24.18;63.51
6425;BME280;12193;42.642;23.384;2023-09-19T11:20:23;94602.84;;;24.60;61.50
6425;BME280;12193;42.642;23.384;2023-09-19T11:23:21;94606.97;;;24.43;60.90
6425;BME280;12193;42.642;23.384;2023-09-19T11:25:52;94606.34;;;24.27;62.25
6425;BME280;12193;42.642;23.384;2023-09-19T11:28:32;94598.19;;;24.89;59.43
6425;BME280;12193;42.642;23.384;2023-09-19T11:31:00;94598.28;;;24.84;59.10
6425;BME280;12193;42.642;23.384;2023-09-19T11:36:56;94582.44;;;25.34;56.88
6425;BME280;12193;42.642;23.384;2023-09-19T11:39:27;94579.28;;;25.09;58.71
6425;BME280;12193;42.642;23.384;2023-09-19T11:41:56;94578.84;;;24.84;58.73
6425;BME280;12193;42.642;23.384;2023-09-19T11:44:34;94575.97;;;24.80;63.13
6425;BME280;12193;42.642;23.384;2023-09-19T11:47:05;94575.72;;;24.58;62.03
6425;BME280;12193;42.642;23.384;2023-09-19T11:49:40;94559.56;;;25.15;59.61
6425;BME280;12193;42.642;23.384;2023-09-19T11:52:12;94552.09;;;25.49;57.19
6425;BME280;12193;42.642;23.384;2023-09-19T11:54:54;94549.63;;;25.02;58.16
6425;BME280;12193;42.642;23.384;2023-09-19T11:57:24;94546.06;;;25.07;57.64
6425;BME280;12193;42.642;23.384;2023-09-19T11:59:54;94544.44;;;25.61;56.43
6425;BME280;12193;42.642;23.384;2023-09-19T12:02:32;94539.72;;;25.58;55.80
6425;BME280;12193;42.642;23.384;2023-09-19T12:05:10;94544.28;;;25.21;57.29
6425;BME280;12193;42.642;23.384;2023-09-19T12:07:42;94550.78;;;25.15;57.25
6425;BME280;12193;42.642;23.384;2023-09-19T12:10:15;94557.09;;;25.37;57.38
6425;BME280;12193;42.642;23.384;2023-09-19T12:12:48;94547.94;;;25.75;54.73
6425;BME280;12193;42.642;23.384;2023-09-19T12:15:23;94538.63;;;26.71;50.85
6425;BME280;12193;42.642;23.384;2023-09-19T12:17:55;94529.31;;;26.96;50.08
6425;BME280;12193;42.642;23.384;2023-09-19T12:20:43;94538.47;;;26.68;51.11
6425;BME280;12193;42.642;23.384;2023-09-19T12:23:13;94532.47;;;26.98;51.11
6425;BME280;12193;42.642;23.384;2023-09-19T12:25:44;94530.44;;;27.30;49.56
6425;BME280;12193;42.642;23.384;2023-09-19T12:28:18;94531.69;;;26.97;50.49
6425;BME280;12193;42.642;23.384;2023-09-19T12:30:48;94524.84;;;26.56;52.32
6425;BME280;12193;42.642;23.384;2023-09-19T12:33:19;94521.78;;;25.77;54.31
6425;BME280;12193;42.642;23.384;2023-09-19T12:35:55;94514.34;;;25.60;54.39
6425;BME280;12193;42.642;23.384;2023-09-19T12:38:25;94515.66;;;26.35;53.54
6425;BME280;12193;42.642;23.384;2023-09-19T12:40:55;94510.81;;;26.10;53.13
6425;BME280;12193;42.642;23.384;2023-09-19T12:43:26;94513.97;;;26.26;53.28
6425;BME280;12193;42.642;23.384;2023-09-19T12:45:59;94508.13;;;25.83;53.62
6425;BME280;12193;42.642;23.384;2023-09-19T12:48:28;94504.66;;;25.37;55.45
6425;BME280;12193;42.642;23.384;2023-09-19T12:51:08;94498.06;;;24.98;56.63
6425;BME280;12193;42.642;23.384;2023-09-19T12:53:40;94497.59;;;25.28;56.35
6425;BME280;12193;42.642;23.384;2023-09-19T12:56:11;94501.94;;;25.56;55.09
6425;BME280;12193;42.642;23.384;2023-09-19T12:58:55;94493.34;;;25.59;54.84
6425;BME280;12193;42.642;23.384;2023-09-19T13:01:26;94501.72;;;25.98;54.23
6425;BME280;12193;42.642;23.384;2023-09-19T13:04:11;94494.31;;;25.18;56.58
6425;BME280;12193;42.642;23.384;2023-09-19T13:06:47;94492.06;;;25.25;56.48
6425;BME280;12193;42.642;23.384;2023-09-19T13:09:18;94491.50;;;25.09;57.93
6425;BME280;12193;42.642;23.384;2023-09-19T13:11:48;94482.63;;;25.32;57.54
6425;BME280;12193;42.642;23.384;2023-09-19T13:14:20;94489.69;;;25.87;55.30
6425;BME280;12193;42.642;23.384;2023-09-19T13:16:58;94480.72;;;25.96;54.34
6425;BME280;12193;42.642;23.384;2023-09-19T13:19:38;94480.91;;;26.00;54.78
6425;BME280;12193;42.642;23.384;2023-09-19T13:22:39;94476.56;;;26.04;53.19
6425;BME280;12193;42.642;23.384;2023-09-19T13:25:13;94483.28;;;25.88;54.64
6425;BME280;12193;42.642;23.384;2023-09-19T13:27:45;94479.81;;;26.14;53.23
6425;BME280;12193;42.642;23.384;2023-09-19T13:30:18;94467.06;;;26.38;52.39
6425;BME280;12193;42.642;23.384;2023-09-19T13:32:48;94470.50;;;26.38;52.31
6425;BME280;12193;42.642;23.384;2023-09-19T13:35:17;94467.94;;;26.20;53.21
6425;BME280;12193;42.642;23.384;2023-09-19T13:37:49;94464.91;;;26.27;52.86
6425;BME280;12193;42.642;23.384;2023-09-19T13:40:18;94459.69;;;25.95;53.42
6425;BME280;12193;42.642;23.384;2023-09-19T13:42:48;94465.03;;;25.49;55.95
6425;BME280;12193;42.642;23.384;2023-09-19T13:45:20;94445.50;;;25.54;56.47
6425;BME280;12193;42.642;23.384;2023-09-19T13:47:51;94457.25;;;25.66;55.88
6425;BME280;12193;42.642;23.384;2023-09-19T13:50:20;94456.50;;;25.66;55.72
6425;BME280;12193;42.642;23.384;2023-09-19T13:52:53;94460.47;;;25.50;55.74
6425;BME280;12193;42.642;23.384;2023-09-19T13:55:22;94453.59;;;25.62;55.61
6425;BME280;12193;42.642;23.384;2023-09-19T13:57:51;94450.63;;;25.50;55.79
6425;BME280;12193;42.642;23.384;2023-09-19T14:00:22;94451.19;;;25.79;54.71
6425;BME280;12193;42.642;23.384;2023-09-19T14:02:51;94448.63;;;26.01;54.36
6425;BME280;12193;42.642;23.384;2023-09-19T14:05:22;94441.34;;;26.07;54.37
6425;BME280;12193;42.642;23.384;2023-09-19T14:07:56;94445.47;;;25.86;55.23
6425;BME280;12193;42.642;23.384;2023-09-19T14:10:25;94450.28;;;25.70;55.33
6425;BME280;12193;42.642;23.384;2023-09-19T14:12:56;94442.00;;;25.85;54.84
6425;BME280;12193;42.642;23.384;2023-09-19T14:15:26;94454.44;;;26.03;54.46
6425;BME280;12193;42.642;23.384;2023-09-19T14:17:59;94450.19;;;26.29;53.50
6425;BME280;12193;42.642;23.384;2023-09-19T14:20:28;94448.88;;;26.40;53.46
6425;BME280;12193;42.642;23.384;2023-09-19T14:23:01;94449.69;;;26.40;53.53
6425;BME280;12193;42.642;23.384;2023-09-19T14:25:30;94448.69;;;26.50;52.75
6425;BME280;12193;42.642;23.384;2023-09-19T14:28:00;94439.75;;;26.68;52.35
6425;BME280;12193;42.642;23.384;2023-09-19T14:30:29;94436.03;;;26.55;51.80
6425;BME280;12193;42.642;23.384;2023-09-19T14:32:58;94430.81;;;26.50;52.80
6425;BME280;12193;42.642;23.384;2023-09-19T14:35:28;94441.44;;;25.88;54.39
6425;BME280;12193;42.642;23.384;2023-09-19T14:38:00;94437.78;;;25.84;54.21
6425;BME280;12193;42.642;23.384;2023-09-19T14:40:29;94431.22;;;25.77;54.60
6425;BME280;12193;42.642;23.384;2023-09-19T14:42:59;94431.53;;;25.62;55.02
6425;BME280;12193;42.642;23.384;2023-09-19T14:45:28;94438.34;;;25.68;54.78
6425;BME280;12193;42.642;23.384;2023-09-19T14:47:58;94436.13;;;25.43;55.12
6425;BME280;12193;42.642;23.384;2023-09-19T14:50:31;94431.91;;;25.42;55.70
6425;BME280;12193;42.642;23.384;2023-09-19T14:53:03;94429.63;;;25.49;55.35
6425;BME280;12193;42.642;23.384;2023-09-19T14:55:37;94432.66;;;25.42;55.62
6425;BME280;12193;42.642;23.384;2023-09-19T14:58:08;94438.50;;;25.44;55.67
6425;BME280;12193;42.642;23.384;2023-09-19T15:00:37;94442.00;;;25.27;56.23
6425;BME280;12193;42.642;23.384;2023-09-19T15:03:06;94424.06;;;25.32;56.35
6425;BME280;12193;42.642;23.384;2023-09-19T15:05:36;94429.91;;;25.34;56.98
6425;BME280;12193;42.642;23.384;2023-09-19T15:08:08;94419.72;;;25.23;57.68
6425;BME280;12193;42.642;23.384;2023-09-19T15:10:37;94427.22;;;25.34;56.53
6425;BME280;12193;42.642;23.384;2023-09-19T15:13:08;94429.41;;;25.32;56.60
6425;BME280;12193;42.642;23.384;2023-09-19T15:15:37;94421.13;;;25.33;56.88
6425;BME280;12193;42.642;23.384;2023-09-19T15:18:06;94422.50;;;25.31;56.70
6425;BME280;12193;42.642;23.384;2023-09-19T15:20:36;94418.34;;;25.25;57.33
6425;BME280;12193;42.642;23.384;2023-09-19T15:23:08;94420.69;;;25.13;57.16
6425;BME280;12193;42.642;23.384;2023-09-19T15:25:38;94410.31;;;25.12;57.07
6425;BME280;12193;42.642;23.384;2023-09-19T15:28:08;94419.31;;;25.16;57.58
6425;BME280;12193;42.642;23.384;2023-09-19T15:30:37;94418.81;;;25.14;58.05
6425;BME280;12193;42.642;23.384;2023-09-19T15:33:07;94423.69;;;25.07;58.49
6425;BME280;12193;42.642;23.384;2023-09-19T15:35:37;94420.03;;;25.03;58.94
6425;BME280;12193;42.642;23.384;2023-09-19T15:38:09;94417.25;;;24.94;59.60
6425;BME280;12193;42.642;23.384;2023-09-19T15:40:46;94421.06;;;24.88;59.63
6425;BME280;12193;42.642;23.384;2023-09-19T15:43:15;94409.16;;;24.67;60.80
6425;BME280;12193;42.642;23.384;2023-09-19T15:45:47;94419.22;;;24.70;61.68
6425;BME280;12193;42.642;23.384;2023-09-19T15:48:18;94418.00;;;24.63;61.78
6425;BME280;12193;42.642;23.384;2023-09-19T15:50:47;94421.75;;;24.62;62.11
6425;BME280;12193;42.642;23.384;2023-09-19T15:53:19;94424.47;;;24.57;62.69
6425;BME280;12193;42.642;23.384;2023-09-19T15:55:48;94426.41;;;24.51;63.44
6425;BME280;12193;42.642;23.384;2023-09-19T15:58:18;94433.94;;;24.44;64.44
6425;BME280;12193;42.642;23.384;2023-09-19T16:00:48;94430.69;;;24.29;65.29
6425;BME280;12193;42.642;23.384;2023-09-19T16:03:18;94438.00;;;24.19;65.50
6425;BME280;12193;42.642;23.384;2023-09-19T16:05:50;94435.91;;;24.16;66.06
6425;BME280;12193;42.642;23.384;2023-09-19T16:08:22;94431.97;;;24.13;66.03
6425;BME280;12193;42.642;23.384;2023-09-19T16:10:53;94432.38;;;24.02;66.68
6425;BME280;12193;42.642;23.384;2023-09-19T16:13:22;94441.28;;;23.92;66.97
6425;BME280;12193;42.642;23.384;2023-09-19T16:15:52;94441.31;;;23.87;67.63
6425;BME280;12193;42.642;23.384;2023-09-19T16:18:21;94441.59;;;23.86;67.90
6425;BME280;12193;42.642;23.384;2023-09-19T16:20:50;94436.13;;;23.77;68.77
6425;BME280;12193;42.642;23.384;2023-09-19T16:23:23;94445.19;;;23.71;69.42
6425;BME280;12193;42.642;23.384;2023-09-19T16:26:00;94441.31;;;23.64;70.94
6425;BME280;12193;42.642;23.384;2023-09-19T16:28:31;94448.00;;;23.56;71.89